createdAt,value
2022-09-07T00:01:19.019Z,17.40
2022-09-07T00:03:47.471Z,17.40
2022-09-07T00:06:16.315Z,17.30
2022-09-07T00:08:44.728Z,17.30
2022-09-07T00:11:16.017Z,17.30
2022-09-07T00:13:46.177Z,17.20
2022-09-07T00:16:18.191Z,17.20
2022-09-07T00:18:46.804Z,17.20
2022-09-07T00:21:16.525Z,17.20
2022-09-07T00:23:45.333Z,17.30
2022-09-07T00:26:18.977Z,17.30
2022-09-07T00:28:47.506Z,17.30
2022-09-07T00:31:17.746Z,17.20
2022-09-07T00:33:46.662Z,17.20
2022-09-07T00:36:14.888Z,17.10
2022-09-07T00:38:43.387Z,17.10
2022-09-07T00:41:12.385Z,17.00
2022-09-07T00:43:43.894Z,17.00
2022-09-07T00:46:15.824Z,16.90
2022-09-07T00:48:50.894Z,16.90
2022-09-07T00:51:24.329Z,16.80
2022-09-07T00:53:58.347Z,16.70
2022-09-07T00:56:31.174Z,16.70
2022-09-07T00:59:01.170Z,16.50
2022-09-07T01:01:29.543Z,16.50
2022-09-07T01:04:00.316Z,16.40
2022-09-07T01:06:32.039Z,16.40
2022-09-07T01:09:04.552Z,16.40
2022-09-07T01:11:34.972Z,16.50
2022-09-07T01:14:07.157Z,16.40
2022-09-07T01:16:49.286Z,16.40
2022-09-07T01:19:51.049Z,16.50
2022-09-07T01:22:40.195Z,16.40
2022-09-07T01:25:11.860Z,16.30
2022-09-07T01:28:11.810Z,16.20
2022-09-07T01:30:43.580Z,16.10
2022-09-07T01:33:24.172Z,16.10
2022-09-07T01:36:03.352Z,16.20
2022-09-07T01:38:38.615Z,16.10
2022-09-07T01:41:11.247Z,16.10
2022-09-07T01:43:46.649Z,16.10
2022-09-07T01:46:20.440Z,16.20
2022-09-07T01:48:53.052Z,16.20
2022-09-07T01:51:24.475Z,16.40
2022-09-07T01:53:57.533Z,16.50
2022-09-07T01:56:31.407Z,16.70
2022-09-07T01:59:05.592Z,16.70
2022-09-07T02:01:41.147Z,16.70
2022-09-07T02:04:13.064Z,16.80
2022-09-07T02:06:46.499Z,16.80
2022-09-07T02:09:21.734Z,16.80
2022-09-07T02:11:50.728Z,16.80
2022-09-07T02:14:25.868Z,16.80
2022-09-07T02:16:59.532Z,16.80
2022-09-07T02:19:33.615Z,16.80
2022-09-07T02:22:07.438Z,16.90
2022-09-07T02:24:38.362Z,17.00
2022-09-07T02:27:11.180Z,17.00
2022-09-07T02:29:41.026Z,17.00
2022-09-07T02:32:09.235Z,17.10
2022-09-07T02:34:37.741Z,17.10
2022-09-07T02:37:08.988Z,17.10
2022-09-07T02:39:38.497Z,17.10
2022-09-07T02:42:07.241Z,17.10
2022-09-07T02:44:38.448Z,17.10
2022-09-07T02:47:18.869Z,17.20
2022-09-07T02:50:04.510Z,17.20
2022-09-07T02:52:43.857Z,17.20
2022-09-07T02:55:24.106Z,17.30
2022-09-07T02:58:02.131Z,17.30
2022-09-07T03:00:34.635Z,17.30
2022-09-07T03:03:13.592Z,17.30
2022-09-07T03:05:45.618Z,17.40
2022-09-07T03:08:17.757Z,17.30
2022-09-07T03:10:46.143Z,17.30
2022-09-07T03:13:22.021Z,17.30
2022-09-07T03:15:54.990Z,17.30
2022-09-07T03:18:25.766Z,17.30
2022-09-07T03:20:54.671Z,17.30
2022-09-07T03:23:23.010Z,17.20
2022-09-07T03:25:51.692Z,17.10
2022-09-07T03:28:19.884Z,17.10
2022-09-07T03:30:48.499Z,17.10
2022-09-07T03:33:17.924Z,17.10
2022-09-07T03:35:57.275Z,17.00
2022-09-07T03:38:25.563Z,17.00
2022-09-07T03:40:59.841Z,16.90
2022-09-07T03:43:28.595Z,16.90
2022-09-07T03:46:00.435Z,16.90
2022-09-07T03:48:31.260Z,16.80
2022-09-07T03:51:03.339Z,16.80
2022-09-07T03:53:32.797Z,16.70
2022-09-07T03:56:02.490Z,16.50
2022-09-07T03:58:32.011Z,16.40
2022-09-07T04:01:01.333Z,16.30
2022-09-07T04:03:30.169Z,16.30
2022-09-07T04:06:01.084Z,16.30
2022-09-07T04:08:30.069Z,16.40
2022-09-07T04:10:58.610Z,16.40
2022-09-07T04:13:27.206Z,16.40
2022-09-07T04:15:56.025Z,16.40
2022-09-07T04:18:24.979Z,16.30
2022-09-07T04:20:53.228Z,16.20
2022-09-07T04:23:22.876Z,16.20
2022-09-07T04:25:51.597Z,16.10
2022-09-07T04:28:21.763Z,15.90
2022-09-07T04:30:50.178Z,15.80
2022-09-07T04:33:18.554Z,15.70
2022-09-07T04:35:46.810Z,15.50
2022-09-07T04:38:17.227Z,15.50
2022-09-07T04:40:46.806Z,15.60
2022-09-07T04:43:14.928Z,15.60
2022-09-07T04:45:43.221Z,15.70
2022-09-07T04:48:11.497Z,15.70
2022-09-07T04:50:39.743Z,15.60
2022-09-07T04:53:07.910Z,15.60
2022-09-07T04:55:36.203Z,15.70
2022-09-07T04:58:05.892Z,15.60
2022-09-07T05:00:34.275Z,15.60
2022-09-07T05:03:02.451Z,15.60
2022-09-07T05:05:30.711Z,15.50
2022-09-07T05:07:59.062Z,15.40
2022-09-07T05:10:27.323Z,15.30
2022-09-07T05:12:55.505Z,15.20
2022-09-07T05:15:25.172Z,15.20
2022-09-07T05:17:53.371Z,15.10
2022-09-07T05:20:21.646Z,15.10
2022-09-07T05:22:49.888Z,15.10
2022-09-07T05:25:18.085Z,15.10
2022-09-07T05:27:46.663Z,15.10
2022-09-07T05:33:08.008Z,15.20
2022-09-07T05:35:36.229Z,15.20
2022-09-07T05:38:04.629Z,15.20
2022-09-07T05:40:38.494Z,15.20
2022-09-07T05:43:09.933Z,15.20
2022-09-07T05:45:38.145Z,15.20
2022-09-07T05:48:07.788Z,15.20
2022-09-07T05:50:36.326Z,15.30
2022-09-07T05:53:04.893Z,15.30
2022-09-07T05:55:33.222Z,15.30
2022-09-07T05:58:01.426Z,15.40
2022-09-07T06:00:29.658Z,15.50
2022-09-07T06:02:57.969Z,15.60
2022-09-07T06:05:27.654Z,15.60
2022-09-07T06:07:55.999Z,15.60
2022-09-07T06:13:12.441Z,15.90
2022-09-07T06:15:40.585Z,16.10
2022-09-07T06:18:08.796Z,16.40
2022-09-07T06:20:38.394Z,16.60
2022-09-07T06:23:07.271Z,16.80
2022-09-07T06:25:35.673Z,17.00
2022-09-07T06:28:04.331Z,17.20
2022-09-07T06:30:32.566Z,17.40
2022-09-07T06:33:00.746Z,17.60
2022-09-07T06:35:28.954Z,17.70
2022-09-07T06:37:58.557Z,17.80
2022-09-07T06:40:26.753Z,17.90
2022-09-07T06:42:54.938Z,18.00
2022-09-07T06:45:23.186Z,18.00
2022-09-07T06:47:54.836Z,18.10
2022-09-07T06:50:23.128Z,18.10
2022-09-07T06:55:46.016Z,18.10
2022-09-07T06:58:14.344Z,18.10
2022-09-07T07:00:42.634Z,18.30
2022-09-07T07:03:11.021Z,18.40
2022-09-07T07:05:39.327Z,18.40
2022-09-07T07:08:07.827Z,18.40
2022-09-07T07:10:39.433Z,18.50
2022-09-07T07:13:08.990Z,18.60
2022-09-07T07:15:37.735Z,18.80
2022-09-07T07:18:20.363Z,18.90
2022-09-07T07:20:49.059Z,18.90
2022-09-07T07:23:17.322Z,19.10
2022-09-07T07:25:45.495Z,19.00
2022-09-07T07:31:09.465Z,19.00
2022-09-07T07:33:40.098Z,19.10
2022-09-07T07:36:10.900Z,19.30
2022-09-07T07:44:21.073Z,19.80
2022-09-07T07:46:50.354Z,19.80
2022-09-07T07:49:18.801Z,19.70
2022-09-07T07:54:36.864Z,20.00
2022-09-07T07:57:05.681Z,20.10
2022-09-07T07:59:35.489Z,20.20
2022-09-07T08:02:05.256Z,20.40
2022-09-07T08:04:34.605Z,20.60
2022-09-07T08:07:09.182Z,20.70
2022-09-07T08:09:38.241Z,20.70
2022-09-07T08:12:06.585Z,20.60
2022-09-07T08:14:40.996Z,20.40
2022-09-07T08:17:09.882Z,20.50
2022-09-07T08:19:38.092Z,20.50
2022-09-07T08:22:06.823Z,20.60
2022-09-07T08:24:35.072Z,20.90
2022-09-07T08:27:03.503Z,21.00
2022-09-07T08:29:34.517Z,21.10
2022-09-07T08:32:06.668Z,21.20
2022-09-07T08:34:37.278Z,21.30
2022-09-07T08:37:05.534Z,21.40
2022-09-07T08:39:33.758Z,21.50
2022-09-07T08:42:16.955Z,21.50
2022-09-07T08:44:49.932Z,21.40
2022-09-07T08:47:29.111Z,21.30
2022-09-07T08:50:03.449Z,21.20
2022-09-07T08:52:42.577Z,21.10
2022-09-07T08:55:16.633Z,20.90
2022-09-07T08:57:48.657Z,20.90
2022-09-07T09:00:19.946Z,20.70
2022-09-07T09:05:47.561Z,20.60
2022-09-07T09:08:30.335Z,20.60
2022-09-07T09:11:07.335Z,20.70
2022-09-07T09:13:52.170Z,20.80
2022-09-07T09:16:29.055Z,20.90
2022-09-07T09:19:12.226Z,21.00
2022-09-07T09:21:42.642Z,21.20
2022-09-07T09:24:17.317Z,21.40
2022-09-07T09:29:21.507Z,21.40
2022-09-07T09:31:49.866Z,21.30
2022-09-07T09:34:23.868Z,21.20
2022-09-07T09:36:55.188Z,21.40
2022-09-07T09:39:33.486Z,21.60
2022-09-07T09:42:16.235Z,21.90
2022-09-07T09:44:45.547Z,22.20
2022-09-07T09:47:30.049Z,22.30
2022-09-07T09:50:02.191Z,22.40
2022-09-07T09:52:42.223Z,22.50
2022-09-07T09:55:35.526Z,22.40
2022-09-07T10:03:58.586Z,22.90
2022-09-07T10:06:30.650Z,23.10
2022-09-07T10:09:01.858Z,23.20
2022-09-07T10:14:35.117Z,23.50
2022-09-07T10:17:12.909Z,23.80
2022-09-07T10:19:43.327Z,23.80
2022-09-07T10:22:34.565Z,23.80
2022-09-07T10:25:03.756Z,23.90
2022-09-07T10:27:37.232Z,24.00
2022-09-07T10:30:12.997Z,24.10
2022-09-07T10:32:57.017Z,24.10
2022-09-07T10:35:29.703Z,24.50
2022-09-07T10:38:16.530Z,24.60
2022-09-07T10:40:47.150Z,24.60
2022-09-07T10:43:27.045Z,24.50
2022-09-07T10:49:19.640Z,24.80
2022-09-07T10:52:01.427Z,24.80
2022-09-07T10:54:39.268Z,25.00
2022-09-07T10:57:34.487Z,25.10
2022-09-07T11:00:09.067Z,25.20
2022-09-07T11:05:58.331Z,25.30
2022-09-07T11:09:15.706Z,25.30
2022-09-07T11:14:23.112Z,25.70
2022-09-07T11:16:56.485Z,25.70
2022-09-07T11:19:37.852Z,25.60
2022-09-07T11:22:20.338Z,25.40
2022-09-07T11:27:48.407Z,25.20
2022-09-07T11:30:23.566Z,25.00
2022-09-07T11:32:58.734Z,24.80
2022-09-07T11:35:36.238Z,24.40
2022-09-07T11:38:14.237Z,24.20
2022-09-07T11:40:49.567Z,24.60
2022-09-07T11:43:23.660Z,24.90
2022-09-07T11:45:56.144Z,25.30
2022-09-07T11:48:31.140Z,25.70
2022-09-07T11:51:04.275Z,25.70
2022-09-07T11:53:38.031Z,25.70
2022-09-07T11:56:12.618Z,25.40
2022-09-07T11:58:58.960Z,25.10
2022-09-07T12:01:37.826Z,25.30
2022-09-07T12:04:31.651Z,25.50
2022-09-07T12:07:32.729Z,25.50
2022-09-07T12:10:25.364Z,25.80
2022-09-07T12:13:34.959Z,25.90
2022-09-07T12:16:10.702Z,25.30
2022-09-07T12:19:02.593Z,25.60
2022-09-07T12:21:43.098Z,25.90
2022-09-07T12:24:40.949Z,25.70
2022-09-07T12:27:26.559Z,26.10
2022-09-07T12:30:29.136Z,26.20
2022-09-07T12:33:20.068Z,26.10
2022-09-07T12:35:48.417Z,25.90
2022-09-07T12:39:02.001Z,25.90
2022-09-07T12:44:43.680Z,26.20
2022-09-07T12:47:30.897Z,25.70
2022-09-07T12:50:22.714Z,25.60
2022-09-07T12:53:11.286Z,25.90
2022-09-07T12:58:52.549Z,26.60
2022-09-07T13:01:36.330Z,26.90
2022-09-07T13:04:37.238Z,26.90
2022-09-07T13:07:43.379Z,26.60
2022-09-07T13:10:26.502Z,26.50
2022-09-07T13:13:00.808Z,26.50
2022-09-07T13:15:44.356Z,26.40
2022-09-07T13:18:32.999Z,26.90
2022-09-07T13:21:31.328Z,26.90
2022-09-07T13:24:47.168Z,26.50
2022-09-07T13:27:51.678Z,26.00
2022-09-07T13:30:46.683Z,25.50
2022-09-07T13:33:32.547Z,25.20
2022-09-07T13:36:03.234Z,25.60
2022-09-07T13:38:34.725Z,26.00
2022-09-07T13:41:07.333Z,26.30
2022-09-07T13:43:37.611Z,26.50
2022-09-07T13:46:16.189Z,26.40
2022-09-07T13:48:50.842Z,26.20
2022-09-07T13:51:25.051Z,26.20
2022-09-07T13:54:04.022Z,26.00
2022-09-07T13:56:41.598Z,26.20
2022-09-07T13:59:22.066Z,26.50
2022-09-07T14:01:51.541Z,26.80
2022-09-07T14:04:26.102Z,26.90
2022-09-07T14:07:03.381Z,26.70
2022-09-07T14:09:32.099Z,26.40
2022-09-07T14:12:00.592Z,25.90
2022-09-07T14:14:33.120Z,25.60
2022-09-07T14:17:05.286Z,25.50
2022-09-07T14:19:39.838Z,25.70
2022-09-07T14:22:15.494Z,25.90
2022-09-07T14:24:48.597Z,25.50
2022-09-07T14:27:23.496Z,25.20
2022-09-07T14:29:53.443Z,25.10
2022-09-07T14:32:25.015Z,25.20
2022-09-07T14:34:53.581Z,25.30
2022-09-07T14:37:23.081Z,25.50
2022-09-07T14:39:52.936Z,25.70
2022-09-07T14:42:23.495Z,25.80
2022-09-07T14:45:31.326Z,25.70
2022-09-07T14:47:59.996Z,26.10
2022-09-07T14:50:32.064Z,26.50
2022-09-07T14:56:02.011Z,26.90
2022-09-07T14:58:32.603Z,26.80
2022-09-07T15:04:19.224Z,27.10
2022-09-07T15:07:03.257Z,26.70
2022-09-07T15:09:36.862Z,26.20
2022-09-07T15:12:15.486Z,25.70
2022-09-07T15:14:43.761Z,25.60
2022-09-07T15:20:34.986Z,24.80
2022-09-07T15:23:04.899Z,24.50
2022-09-07T15:25:33.976Z,24.40
2022-09-07T15:28:02.474Z,24.60
2022-09-07T15:30:30.653Z,24.80
2022-09-07T15:33:00.353Z,25.00
2022-09-07T15:35:28.554Z,25.30
2022-09-07T15:38:05.481Z,25.20
2022-09-07T15:41:03.748Z,25.10
2022-09-07T15:43:31.304Z,25.10
2022-09-07T15:45:59.657Z,25.40
2022-09-07T15:48:29.365Z,25.50
2022-09-07T15:51:04.486Z,25.70
2022-09-07T15:56:23.903Z,25.90
2022-09-07T15:58:56.022Z,25.40
2022-09-07T16:04:16.252Z,24.60
2022-09-07T16:06:44.608Z,24.30
2022-09-07T16:09:12.889Z,24.10
2022-09-07T16:11:41.366Z,24.00
2022-09-07T16:14:11.801Z,24.00
2022-09-07T16:19:30.468Z,23.90
2022-09-07T16:21:58.770Z,23.90
2022-09-07T16:24:28.346Z,23.90
2022-09-07T16:26:56.653Z,23.80
2022-09-07T16:29:24.850Z,23.90
2022-09-07T16:34:45.177Z,23.80
2022-09-07T16:37:14.631Z,23.80
2022-09-07T16:39:42.919Z,23.60
2022-09-07T16:42:11.249Z,23.40
2022-09-07T16:44:39.602Z,23.40
2022-09-07T16:47:07.977Z,23.20
2022-09-07T16:49:36.568Z,23.10
2022-09-07T16:52:10.589Z,22.90
2022-09-07T16:54:39.211Z,22.70
2022-09-07T16:57:07.449Z,22.50
2022-09-07T16:59:35.985Z,22.30
2022-09-07T17:02:04.125Z,22.20
2022-09-07T17:04:32.440Z,22.20
2022-09-07T17:07:00.788Z,22.10
2022-09-07T17:09:30.467Z,22.10
2022-09-07T17:11:58.731Z,22.10
2022-09-07T17:14:28.308Z,22.00
2022-09-07T17:16:56.557Z,22.00
2022-09-07T17:19:32.455Z,22.00
2022-09-07T17:22:01.194Z,21.90
2022-09-07T17:24:32.261Z,21.90
2022-09-07T17:27:00.996Z,21.90
2022-09-07T17:29:30.773Z,21.90
2022-09-07T17:34:47.630Z,22.00
2022-09-07T17:37:15.858Z,22.10
2022-09-07T17:39:45.589Z,22.10
2022-09-07T17:42:14.436Z,22.10
2022-09-07T17:44:42.636Z,22.10
2022-09-07T17:47:11.179Z,21.90
2022-09-07T17:49:39.712Z,21.90
2022-09-07T17:52:07.877Z,21.90
2022-09-07T17:54:36.369Z,21.90
2022-09-07T17:57:07.162Z,21.80
2022-09-07T18:02:24.209Z,21.70
2022-09-07T18:04:52.505Z,21.70
2022-09-07T18:07:20.833Z,21.60
2022-09-07T18:09:49.226Z,21.50
2022-09-07T18:12:18.813Z,21.50
2022-09-07T18:14:47.042Z,21.50
2022-09-07T18:17:15.292Z,21.40
2022-09-07T18:19:43.512Z,21.40
2022-09-07T18:22:11.770Z,21.30
2022-09-07T18:24:40.189Z,21.20
2022-09-07T18:27:09.837Z,21.10
2022-09-07T18:29:39.541Z,21.10
2022-09-07T18:32:09.837Z,21.00
2022-09-07T18:34:41.166Z,20.90
2022-09-07T18:37:12.245Z,20.80
2022-09-07T18:39:41.053Z,20.80
2022-09-07T18:42:10.138Z,20.70
2022-09-07T18:47:29.412Z,20.60
2022-09-07T18:49:58.714Z,20.60
2022-09-07T18:55:17.199Z,20.60
2022-09-07T18:57:45.397Z,20.50
2022-09-07T19:00:15.377Z,20.40
2022-09-07T19:02:43.531Z,20.30
2022-09-07T19:08:03.352Z,20.10
2022-09-07T19:10:34.837Z,20.10
2022-09-07T19:13:03.079Z,20.00
2022-09-07T19:15:37.082Z,20.00
2022-09-07T19:18:07.064Z,19.90
2022-09-07T19:20:37.998Z,19.80
2022-09-07T19:23:06.965Z,19.90
2022-09-07T19:25:40.459Z,19.90
2022-09-07T19:28:09.021Z,19.80
2022-09-07T19:30:38.662Z,19.70
2022-09-07T19:33:09.973Z,19.60
2022-09-07T19:35:38.182Z,19.40
2022-09-07T19:38:06.356Z,19.20
2022-09-07T19:40:35.448Z,19.10
2022-09-07T19:43:03.639Z,18.90
2022-09-07T19:45:32.325Z,18.80
2022-09-07T19:48:02.001Z,18.70
2022-09-07T19:50:30.229Z,18.70
2022-09-07T19:52:58.936Z,18.60
2022-09-07T19:55:27.484Z,18.60
2022-09-07T19:57:55.664Z,18.80
2022-09-07T20:00:24.739Z,18.80
2022-09-07T20:02:54.235Z,18.80
2022-09-07T20:05:24.211Z,18.80
2022-09-07T20:07:52.423Z,18.80
2022-09-07T20:10:20.625Z,18.80
2022-09-07T20:12:48.858Z,18.80
2022-09-07T20:15:17.278Z,18.90
2022-09-07T20:17:47.434Z,18.90
2022-09-07T20:20:15.928Z,18.90
2022-09-07T20:22:45.514Z,18.80
2022-09-07T20:25:13.812Z,18.80
2022-09-07T20:27:42.493Z,18.80
2022-09-07T20:30:11.956Z,18.80
2022-09-07T20:32:40.210Z,18.80
2022-09-07T20:35:09.487Z,18.80
2022-09-07T20:37:37.794Z,18.80
2022-09-07T20:40:09.097Z,18.90
2022-09-07T20:42:37.618Z,18.90
2022-09-07T20:45:06.612Z,18.90
2022-09-07T20:47:35.203Z,19.00
2022-09-07T20:50:03.440Z,19.10
2022-09-07T20:52:31.688Z,19.20
2022-09-07T20:54:59.958Z,19.30
2022-09-07T20:57:29.530Z,19.30
2022-09-07T20:59:57.722Z,19.30
2022-09-07T21:02:26.016Z,19.30
2022-09-07T21:04:54.470Z,19.20
2022-09-07T21:07:22.698Z,19.10
2022-09-07T21:09:51.333Z,19.00
2022-09-07T21:12:19.461Z,18.90
2022-09-07T21:14:49.123Z,18.70
2022-09-07T21:17:17.281Z,18.50
2022-09-07T21:19:45.646Z,18.30
2022-09-07T21:22:13.850Z,18.20
2022-09-07T21:24:43.059Z,18.00
2022-09-07T21:27:11.302Z,18.00
2022-09-07T21:29:39.475Z,17.80
2022-09-07T21:32:09.072Z,17.70
2022-09-07T21:34:37.204Z,17.70
2022-09-07T21:37:05.601Z,17.70
2022-09-07T21:39:33.846Z,17.70
2022-09-07T21:42:02.116Z,17.60
2022-09-07T21:44:30.266Z,17.60
2022-09-07T21:46:58.508Z,17.50
2022-09-07T21:49:28.293Z,17.40
2022-09-07T21:51:56.444Z,17.40
2022-09-07T21:54:24.654Z,17.40
2022-09-07T21:56:53.280Z,17.40
2022-09-07T21:59:21.508Z,17.50
2022-09-07T22:01:49.931Z,17.60
2022-09-07T22:04:18.197Z,17.70
2022-09-07T22:06:47.834Z,17.90
2022-09-07T22:09:16.184Z,18.00
2022-09-07T22:11:46.290Z,18.00
2022-09-07T22:14:15.769Z,18.10
2022-09-07T22:16:44.001Z,18.00
2022-09-07T22:19:12.772Z,18.00
2022-09-07T22:21:40.948Z,18.10
2022-09-07T22:24:15.186Z,18.10
2022-09-07T22:26:43.413Z,18.10
2022-09-07T22:29:13.289Z,18.20
2022-09-07T22:31:42.323Z,18.20
2022-09-07T22:34:11.447Z,18.30
2022-09-07T22:36:41.725Z,18.30
2022-09-07T22:39:14.249Z,18.20
2022-09-07T22:41:43.674Z,18.20
2022-09-07T22:44:14.070Z,18.10
2022-09-07T22:46:43.948Z,18.10
2022-09-07T22:49:13.462Z,18.10
2022-09-07T22:51:41.693Z,18.10
2022-09-07T22:54:11.334Z,18.10
2022-09-07T22:56:40.278Z,18.10
2022-09-07T22:59:10.536Z,18.10
2022-09-07T23:01:39.281Z,18.10
2022-09-07T23:04:07.852Z,18.10
2022-09-07T23:06:37.729Z,18.10
2022-09-07T23:09:07.975Z,18.10
2022-09-07T23:11:37.906Z,18.10
2022-09-07T23:14:07.942Z,18.20
2022-09-07T23:16:36.311Z,18.20
2022-09-07T23:19:04.825Z,18.20
2022-09-07T23:21:33.024Z,18.30
2022-09-07T23:24:01.496Z,18.40
2022-09-07T23:26:31.448Z,18.50
2022-09-07T23:29:02.906Z,18.60
2022-09-07T23:31:32.783Z,18.70
2022-09-07T23:34:01.714Z,18.70
2022-09-07T23:36:30.271Z,18.70
2022-09-07T23:38:59.658Z,18.70
2022-09-07T23:41:28.534Z,18.70
2022-09-07T23:43:57.042Z,18.70
2022-09-07T23:46:26.838Z,18.70
2022-09-07T23:48:55.064Z,18.60
2022-09-07T23:51:24.684Z,18.60
2022-09-07T23:53:53.573Z,18.60
2022-09-07T23:56:24.528Z,18.50
2022-09-07T23:58:53.114Z,18.50
